sensor_id;sensor_type;location;lat;lon;timestamp;pressure;altitude;pressure_sealevel;temperature;humidity
14269;BME280;7218;51.480;7.006;2022-07-03T00:00:21;101016.50;;;22.20;66.88
14269;BME280;7218;51.480;7.006;2022-07-03T00:02:48;101015.69;;;22.02;68.71
14269;BME280;7218;51.480;7.006;2022-07-03T00:05:14;101014.00;;;22.01;68.02
14269;BME280;7218;51.480;7.006;2022-07-03T00:07:41;101013.50;;;21.93;70.58
14269;BME280;7218;51.480;7.006;2022-07-03T00:10:08;101012.16;;;21.86;70.52
14269;BME280;7218;51.480;7.006;2022-07-03T00:12:36;101015.25;;;21.94;69.50
14269;BME280;7218;51.480;7.006;2022-07-03T00:15:03;101016.28;;;21.92;69.63
14269;BME280;7218;51.480;7.006;2022-07-03T00:17:30;101006.47;;;21.92;69.97
14269;BME280;7218;51.480;7.006;2022-07-03T00:19:57;100999.34;;;21.77;71.35
14269;BME280;7218;51.480;7.006;2022-07-03T00:22:25;101009.03;;;21.78;70.44
14269;BME280;7218;51.480;7.006;2022-07-03T00:24:54;101013.47;;;21.77;71.53
14269;BME280;7218;51.480;7.006;2022-07-03T00:27:25;101013.91;;;21.70;71.98
14269;BME280;7218;51.480;7.006;2022-07-03T00:29:56;101016.13;;;21.62;71.66
14269;BME280;7218;51.480;7.006;2022-07-03T00:32:25;101019.09;;;21.56;72.34
14269;BME280;7218;51.480;7.006;2022-07-03T00:34:54;101021.03;;;21.52;72.47
14269;BME280;7218;51.480;7.006;2022-07-03T00:37:21;101021.81;;;21.54;71.68
14269;BME280;7218;51.480;7.006;2022-07-03T00:39:48;101018.31;;;21.54;72.84
14269;BME280;7218;51.480;7.006;2022-07-03T00:42:18;101026.94;;;21.41;75.18
14269;BME280;7218;51.480;7.006;2022-07-03T00:44:47;101021.22;;;21.49;73.90
14269;BME280;7218;51.480;7.006;2022-07-03T00:47:16;101012.25;;;21.52;73.87
14269;BME280;7218;51.480;7.006;2022-07-03T00:49:46;101011.13;;;21.56;73.14
14269;BME280;7218;51.480;7.006;2022-07-03T00:52:14;101012.38;;;21.48;73.69
14269;BME280;7218;51.480;7.006;2022-07-03T00:54:43;101004.53;;;21.63;72.50
14269;BME280;7218;51.480;7.006;2022-07-03T00:57:14;101003.78;;;21.61;73.36
14269;BME280;7218;51.480;7.006;2022-07-03T00:59:41;101004.09;;;21.55;73.42
14269;BME280;7218;51.480;7.006;2022-07-03T01:02:08;100998.13;;;21.51;74.58
14269;BME280;7218;51.480;7.006;2022-07-03T01:04:46;100988.34;;;21.52;74.29
14269;BME280;7218;51.480;7.006;2022-07-03T01:07:25;100983.88;;;21.19;73.57
14269;BME280;7218;51.480;7.006;2022-07-03T01:10:01;100985.28;;;21.26;74.14
14269;BME280;7218;51.480;7.006;2022-07-03T01:12:38;100980.72;;;21.28;75.07
14269;BME280;7218;51.480;7.006;2022-07-03T01:15:11;100978.88;;;21.30;75.14
14269;BME280;7218;51.480;7.006;2022-07-03T01:17:39;100982.09;;;21.20;75.85
14269;BME280;7218;51.480;7.006;2022-07-03T01:20:08;100982.78;;;21.23;76.63
14269;BME280;7218;51.480;7.006;2022-07-03T01:22:36;100978.50;;;21.21;76.48
14269;BME280;7218;51.480;7.006;2022-07-03T01:25:22;100978.84;;;21.13;77.08
14269;BME280;7218;51.480;7.006;2022-07-03T01:28:10;100967.47;;;21.11;77.39
14269;BME280;7218;51.480;7.006;2022-07-03T01:30:39;100973.84;;;21.07;77.95
14269;BME280;7218;51.480;7.006;2022-07-03T01:33:08;100969.88;;;20.98;78.60
14269;BME280;7218;51.480;7.006;2022-07-03T01:35:36;100974.31;;;20.98;78.21
14269;BME280;7218;51.480;7.006;2022-07-03T01:38:06;100971.59;;;20.99;78.34
14269;BME280;7218;51.480;7.006;2022-07-03T01:40:34;100972.78;;;20.94;79.46
14269;BME280;7218;51.480;7.006;2022-07-03T01:43:04;100968.72;;;21.04;78.63
14269;BME280;7218;51.480;7.006;2022-07-03T01:45:31;100968.47;;;21.09;77.72
14269;BME280;7218;51.480;7.006;2022-07-03T01:48:00;100961.19;;;21.14;78.88
14269;BME280;7218;51.480;7.006;2022-07-03T01:50:28;100960.44;;;21.10;79.43
14269;BME280;7218;51.480;7.006;2022-07-03T01:52:56;100962.72;;;21.18;78.35
14269;BME280;7218;51.480;7.006;2022-07-03T01:55:28;100962.94;;;21.13;77.95
14269;BME280;7218;51.480;7.006;2022-07-03T01:57:55;100955.56;;;21.20;78.08
14269;BME280;7218;51.480;7.006;2022-07-03T02:00:24;100961.47;;;21.25;77.64
14269;BME280;7218;51.480;7.006;2022-07-03T02:02:56;100958.81;;;21.25;77.70
14269;BME280;7218;51.480;7.006;2022-07-03T02:05:30;100960.16;;;21.16;78.43
14269;BME280;7218;51.480;7.006;2022-07-03T02:08:03;100959.75;;;21.07;79.07
14269;BME280;7218;51.480;7.006;2022-07-03T02:10:34;100964.09;;;21.08;79.52
14269;BME280;7218;51.480;7.006;2022-07-03T02:13:07;100958.09;;;21.04;79.72
14269;BME280;7218;51.480;7.006;2022-07-03T02:15:36;100954.06;;;20.97;79.24
14269;BME280;7218;51.480;7.006;2022-07-03T02:18:11;100952.44;;;20.94;80.77
14269;BME280;7218;51.480;7.006;2022-07-03T02:20:46;100953.59;;;20.89;80.96
14269;BME280;7218;51.480;7.006;2022-07-03T02:23:13;100950.50;;;20.81;80.62
14269;BME280;7218;51.480;7.006;2022-07-03T02:25:44;100952.28;;;20.80;80.97
14269;BME280;7218;51.480;7.006;2022-07-03T02:28:14;100950.72;;;20.76;81.48
14269;BME280;7218;51.480;7.006;2022-07-03T02:30:49;100952.50;;;20.76;81.70
14269;BME280;7218;51.480;7.006;2022-07-03T02:33:19;100952.09;;;20.83;81.35
14269;BME280;7218;51.480;7.006;2022-07-03T02:35:48;100952.84;;;20.87;81.78
14269;BME280;7218;51.480;7.006;2022-07-03T02:38:18;100947.28;;;20.91;81.38
14269;BME280;7218;51.480;7.006;2022-07-03T02:40:48;100952.50;;;20.93;81.80
14269;BME280;7218;51.480;7.006;2022-07-03T02:43:21;100936.13;;;21.02;80.70
14269;BME280;7218;51.480;7.006;2022-07-03T02:45:57;100940.72;;;20.98;80.04
14269;BME280;7218;51.480;7.006;2022-07-03T02:48:31;100938.00;;;21.00;79.67
14269;BME280;7218;51.480;7.006;2022-07-03T02:51:03;100939.34;;;20.91;80.77
14269;BME280;7218;51.480;7.006;2022-07-03T02:53:41;100938.78;;;20.85;81.46
14269;BME280;7218;51.480;7.006;2022-07-03T02:56:14;100946.28;;;20.77;81.57
14269;BME280;7218;51.480;7.006;2022-07-03T02:58:53;100945.09;;;20.65;82.05
14269;BME280;7218;51.480;7.006;2022-07-03T03:01:31;100950.06;;;20.54;83.65
14269;BME280;7218;51.480;7.006;2022-07-03T03:04:08;100948.56;;;20.48;83.76
14269;BME280;7218;51.480;7.006;2022-07-03T03:06:36;100950.13;;;20.52;83.38
14269;BME280;7218;51.480;7.006;2022-07-03T03:09:04;100952.78;;;20.52;83.16
14269;BME280;7218;51.480;7.006;2022-07-03T03:11:40;100949.06;;;20.56;83.51
14269;BME280;7218;51.480;7.006;2022-07-03T03:14:09;100942.19;;;20.52;83.38
14269;BME280;7218;51.480;7.006;2022-07-03T03:16:41;100946.72;;;20.50;83.76
14269;BME280;7218;51.480;7.006;2022-07-03T03:19:08;100950.31;;;20.49;84.27
14269;BME280;7218;51.480;7.006;2022-07-03T03:21:42;100940.88;;;20.44;84.67
14269;BME280;7218;51.480;7.006;2022-07-03T03:24:13;100944.44;;;20.43;84.92
14269;BME280;7218;51.480;7.006;2022-07-03T03:26:39;100947.34;;;20.55;84.26
14269;BME280;7218;51.480;7.006;2022-07-03T03:29:06;100954.75;;;20.49;84.62
14269;BME280;7218;51.480;7.006;2022-07-03T03:31:33;100949.75;;;20.43;85.02
14269;BME280;7218;51.480;7.006;2022-07-03T03:34:01;100951.53;;;20.42;85.64
14269;BME280;7218;51.480;7.006;2022-07-03T03:36:28;100948.56;;;20.31;87.46
14269;BME280;7218;51.480;7.006;2022-07-03T03:38:55;100954.63;;;20.33;86.99
14269;BME280;7218;51.480;7.006;2022-07-03T03:41:22;100950.19;;;20.34;87.28
14269;BME280;7218;51.480;7.006;2022-07-03T03:43:49;100960.97;;;20.29;86.70
14269;BME280;7218;51.480;7.006;2022-07-03T03:46:15;100959.44;;;20.25;87.40
14269;BME280;7218;51.480;7.006;2022-07-03T03:48:42;100956.31;;;20.17;87.37
14269;BME280;7218;51.480;7.006;2022-07-03T03:51:10;100950.91;;;20.18;88.18
14269;BME280;7218;51.480;7.006;2022-07-03T03:53:37;100953.78;;;20.14;88.46
14269;BME280;7218;51.480;7.006;2022-07-03T03:56:07;100955.44;;;20.16;88.50
14269;BME280;7218;51.480;7.006;2022-07-03T03:58:36;100960.84;;;20.13;88.46
14269;BME280;7218;51.480;7.006;2022-07-03T04:01:03;100959.88;;;20.16;88.26
14269;BME280;7218;51.480;7.006;2022-07-03T04:03:32;100949.81;;;20.23;87.90
14269;BME280;7218;51.480;7.006;2022-07-03T04:05:58;100950.84;;;20.20;88.07
14269;BME280;7218;51.480;7.006;2022-07-03T04:08:27;100953.44;;;20.22;88.57
14269;BME280;7218;51.480;7.006;2022-07-03T04:10:54;100947.09;;;20.24;88.45
14269;BME280;7218;51.480;7.006;2022-07-03T04:13:21;100952.41;;;20.24;88.15
14269;BME280;7218;51.480;7.006;2022-07-03T04:15:48;100961.16;;;20.26;88.76
14269;BME280;7218;51.480;7.006;2022-07-03T04:18:15;100966.44;;;20.26;88.40
14269;BME280;7218;51.480;7.006;2022-07-03T04:20:42;100962.34;;;20.38;88.31
14269;BME280;7218;51.480;7.006;2022-07-03T04:23:08;100964.00;;;20.40;88.26
14269;BME280;7218;51.480;7.006;2022-07-03T04:25:36;100966.38;;;20.46;87.38
14269;BME280;7218;51.480;7.006;2022-07-03T04:28:03;100962.00;;;20.45;88.01
14269;BME280;7218;51.480;7.006;2022-07-03T04:30:29;100975.06;;;20.48;87.76
14269;BME280;7218;51.480;7.006;2022-07-03T04:32:56;100972.28;;;20.51;87.48
14269;BME280;7218;51.480;7.006;2022-07-03T04:35:22;100981.31;;;20.47;88.29
14269;BME280;7218;51.480;7.006;2022-07-03T04:37:49;100974.72;;;20.56;88.57
14269;BME280;7218;51.480;7.006;2022-07-03T04:40:15;100987.28;;;20.70;87.11
14269;BME280;7218;51.480;7.006;2022-07-03T04:42:43;100987.97;;;20.73;86.49
14269;BME280;7218;51.480;7.006;2022-07-03T04:45:09;100986.56;;;20.66;83.80
14269;BME280;7218;51.480;7.006;2022-07-03T04:47:36;100983.31;;;20.61;82.68
14269;BME280;7218;51.480;7.006;2022-07-03T04:50:03;100987.28;;;20.70;82.74
14269;BME280;7218;51.480;7.006;2022-07-03T04:52:29;100998.34;;;20.60;81.59
14269;BME280;7218;51.480;7.006;2022-07-03T04:54:56;101004.59;;;20.03;79.06
14269;BME280;7218;51.480;7.006;2022-07-03T04:57:22;100991.38;;;20.22;77.24
14269;BME280;7218;51.480;7.006;2022-07-03T04:59:50;101009.38;;;20.14;77.32
14269;BME280;7218;51.480;7.006;2022-07-03T05:02:16;101010.97;;;20.18;76.71
14269;BME280;7218;51.480;7.006;2022-07-03T05:04:43;101009.47;;;19.94;78.35
14269;BME280;7218;51.480;7.006;2022-07-03T05:07:09;101010.03;;;20.19;77.89
14269;BME280;7218;51.480;7.006;2022-07-03T05:09:36;101004.75;;;20.38;77.08
14269;BME280;7218;51.480;7.006;2022-07-03T05:12:03;101007.97;;;20.26;77.68
14269;BME280;7218;51.480;7.006;2022-07-03T05:14:30;101014.28;;;20.42;77.24
14269;BME280;7218;51.480;7.006;2022-07-03T05:16:57;101013.41;;;20.41;77.69
14269;BME280;7218;51.480;7.006;2022-07-03T05:19:24;101007.78;;;20.66;76.40
14269;BME280;7218;51.480;7.006;2022-07-03T05:21:50;101007.47;;;20.72;76.68
14269;BME280;7218;51.480;7.006;2022-07-03T05:24:17;101006.06;;;20.65;76.93
14269;BME280;7218;51.480;7.006;2022-07-03T05:26:43;101013.31;;;20.79;76.73
14269;BME280;7218;51.480;7.006;2022-07-03T05:29:10;101017.69;;;20.80;76.11
14269;BME280;7218;51.480;7.006;2022-07-03T05:31:36;101010.81;;;20.93;75.98
14269;BME280;7218;51.480;7.006;2022-07-03T05:34:04;101018.72;;;20.94;75.64
14269;BME280;7218;51.480;7.006;2022-07-03T05:36:30;101021.84;;;20.85;76.01
14269;BME280;7218;51.480;7.006;2022-07-03T05:38:57;101033.22;;;21.04;75.40
14269;BME280;7218;51.480;7.006;2022-07-03T05:41:41;101031.19;;;21.10;75.27
14269;BME280;7218;51.480;7.006;2022-07-03T05:44:08;101023.50;;;21.22;74.34
14269;BME280;7218;51.480;7.006;2022-07-03T05:46:34;101024.03;;;21.29;74.70
14269;BME280;7218;51.480;7.006;2022-07-03T05:49:01;101030.75;;;21.36;73.91
14269;BME280;7218;51.480;7.006;2022-07-03T05:51:29;101039.22;;;21.60;73.40
14269;BME280;7218;51.480;7.006;2022-07-03T05:53:55;101035.47;;;21.64;72.96
14269;BME280;7218;51.480;7.006;2022-07-03T05:56:21;101041.03;;;21.59;73.89
14269;BME280;7218;51.480;7.006;2022-07-03T05:58:49;101044.47;;;21.61;73.34
14269;BME280;7218;51.480;7.006;2022-07-03T06:01:15;101037.19;;;21.65;73.01
14269;BME280;7218;51.480;7.006;2022-07-03T06:03:42;101036.88;;;21.54;72.43
14269;BME280;7218;51.480;7.006;2022-07-03T06:06:08;101031.50;;;21.55;72.12
14269;BME280;7218;51.480;7.006;2022-07-03T06:08:37;101040.63;;;21.67;72.85
14269;BME280;7218;51.480;7.006;2022-07-03T06:11:03;101034.28;;;21.69;71.89
14269;BME280;7218;51.480;7.006;2022-07-03T06:13:30;101043.03;;;21.71;72.13
14269;BME280;7218;51.480;7.006;2022-07-03T06:15:57;101033.09;;;21.75;72.43
14269;BME280;7218;51.480;7.006;2022-07-03T06:18:23;101029.28;;;21.63;72.20
14269;BME280;7218;51.480;7.006;2022-07-03T06:20:50;101032.06;;;21.77;70.82
14269;BME280;7218;51.480;7.006;2022-07-03T06:23:19;101036.03;;;21.86;70.40
14269;BME280;7218;51.480;7.006;2022-07-03T06:25:48;101035.25;;;22.01;68.54
14269;BME280;7218;51.480;7.006;2022-07-03T06:28:14;101040.56;;;22.17;68.20
14269;BME280;7218;51.480;7.006;2022-07-03T06:30:41;101032.50;;;22.18;67.02
14269;BME280;7218;51.480;7.006;2022-07-03T06:33:07;101039.22;;;22.25;67.29
14269;BME280;7218;51.480;7.006;2022-07-03T06:35:34;101034.56;;;22.29;66.52
14269;BME280;7218;51.480;7.006;2022-07-03T06:38:04;101038.88;;;22.31;66.28
14269;BME280;7218;51.480;7.006;2022-07-03T06:40:31;101044.00;;;22.35;67.10
14269;BME280;7218;51.480;7.006;2022-07-03T06:42:59;101040.56;;;22.48;66.15
14269;BME280;7218;51.480;7.006;2022-07-03T06:45:25;101047.78;;;22.46;65.33
14269;BME280;7218;51.480;7.006;2022-07-03T06:47:52;101043.81;;;22.53;65.66
14269;BME280;7218;51.480;7.006;2022-07-03T06:50:19;101043.47;;;22.59;65.98
14269;BME280;7218;51.480;7.006;2022-07-03T06:52:45;101040.91;;;22.58;65.53
14269;BME280;7218;51.480;7.006;2022-07-03T06:55:13;101049.50;;;22.31;65.32
14269;BME280;7218;51.480;7.006;2022-07-03T06:57:43;101056.44;;;22.34;65.77
14269;BME280;7218;51.480;7.006;2022-07-03T07:00:12;101042.44;;;22.62;65.66
14269;BME280;7218;51.480;7.006;2022-07-03T07:02:43;101047.34;;;22.54;64.26
14269;BME280;7218;51.480;7.006;2022-07-03T07:05:09;101042.63;;;22.59;64.38
14269;BME280;7218;51.480;7.006;2022-07-03T07:07:36;101050.94;;;23.14;63.42
14269;BME280;7218;51.480;7.006;2022-07-03T07:10:04;101053.03;;;23.09;60.99
14269;BME280;7218;51.480;7.006;2022-07-03T07:12:31;101052.03;;;22.96;60.17
14269;BME280;7218;51.480;7.006;2022-07-03T07:14:57;101053.03;;;23.09;58.96
14269;BME280;7218;51.480;7.006;2022-07-03T07:17:25;101056.00;;;22.89;59.59
14269;BME280;7218;51.480;7.006;2022-07-03T07:19:54;101053.34;;;23.18;57.23
14269;BME280;7218;51.480;7.006;2022-07-03T07:22:21;101058.47;;;23.22;56.50
14269;BME280;7218;51.480;7.006;2022-07-03T07:24:51;101060.88;;;23.26;56.83
14269;BME280;7218;51.480;7.006;2022-07-03T07:27:20;101052.03;;;23.26;57.03
14269;BME280;7218;51.480;7.006;2022-07-03T07:29:47;101048.59;;;23.24;57.71
14269;BME280;7218;51.480;7.006;2022-07-03T07:32:14;101056.22;;;23.30;56.52
14269;BME280;7218;51.480;7.006;2022-07-03T07:34:42;101052.56;;;23.46;54.73
14269;BME280;7218;51.480;7.006;2022-07-03T07:37:09;101052.09;;;23.54;54.93
14269;BME280;7218;51.480;7.006;2022-07-03T07:39:36;101046.28;;;23.62;56.49
14269;BME280;7218;51.480;7.006;2022-07-03T07:42:03;101060.31;;;23.79;56.00
14269;BME280;7218;51.480;7.006;2022-07-03T07:44:29;101058.47;;;23.22;53.86
14269;BME280;7218;51.480;7.006;2022-07-03T07:46:56;101049.94;;;23.61;53.42
14269;BME280;7218;51.480;7.006;2022-07-03T07:49:22;101043.66;;;23.32;55.02
14269;BME280;7218;51.480;7.006;2022-07-03T07:51:50;101048.09;;;23.47;54.34
14269;BME280;7218;51.480;7.006;2022-07-03T07:54:16;101051.06;;;23.56;53.88
14269;BME280;7218;51.480;7.006;2022-07-03T07:56:43;101052.22;;;23.81;53.18
14269;BME280;7218;51.480;7.006;2022-07-03T07:59:09;101050.78;;;23.89;52.20
14269;BME280;7218;51.480;7.006;2022-07-03T08:01:36;101052.09;;;23.96;52.72
14269;BME280;7218;51.480;7.006;2022-07-03T08:04:20;101055.53;;;23.98;52.58
14269;BME280;7218;51.480;7.006;2022-07-03T08:07:06;101061.25;;;24.35;52.32
14269;BME280;7218;51.480;7.006;2022-07-03T08:09:32;101063.81;;;24.22;51.33
14269;BME280;7218;51.480;7.006;2022-07-03T08:11:59;101055.94;;;24.21;51.04
14269;BME280;7218;51.480;7.006;2022-07-03T08:14:25;101061.50;;;24.44;50.69
14269;BME280;7218;51.480;7.006;2022-07-03T08:16:52;101057.72;;;24.06;52.55
14269;BME280;7218;51.480;7.006;2022-07-03T08:19:18;101060.28;;;24.08;52.86
14269;BME280;7218;51.480;7.006;2022-07-03T08:21:45;101058.72;;;24.60;50.04
14269;BME280;7218;51.480;7.006;2022-07-03T08:24:12;101057.25;;;24.28;51.21
14269;BME280;7218;51.480;7.006;2022-07-03T08:26:41;101058.41;;;24.10;51.77
14269;BME280;7218;51.480;7.006;2022-07-03T08:29:08;101056.19;;;24.44;50.82
14269;BME280;7218;51.480;7.006;2022-07-03T08:31:34;101058.69;;;24.05;52.10
14269;BME280;7218;51.480;7.006;2022-07-03T08:34:01;101065.91;;;24.31;51.74
14269;BME280;7218;51.480;7.006;2022-07-03T08:36:27;101058.50;;;24.63;49.85
14269;BME280;7218;51.480;7.006;2022-07-03T08:38:54;101060.44;;;24.47;49.70
14269;BME280;7218;51.480;7.006;2022-07-03T08:41:23;101059.81;;;24.70;49.38
14269;BME280;7218;51.480;7.006;2022-07-03T08:43:50;101053.56;;;24.57;49.40
14269;BME280;7218;51.480;7.006;2022-07-03T08:46:19;101066.84;;;24.71;48.13
14269;BME280;7218;51.480;7.006;2022-07-03T08:48:45;101059.69;;;24.45;49.17
14269;BME280;7218;51.480;7.006;2022-07-03T08:51:13;101066.72;;;24.87;48.43
14269;BME280;7218;51.480;7.006;2022-07-03T08:53:40;101065.94;;;24.17;49.35
14269;BME280;7218;51.480;7.006;2022-07-03T08:56:07;101062.44;;;24.84;48.19
14269;BME280;7218;51.480;7.006;2022-07-03T08:58:37;101064.91;;;24.61;48.76
14269;BME280;7218;51.480;7.006;2022-07-03T09:01:05;101058.72;;;24.87;47.86
14269;BME280;7218;51.480;7.006;2022-07-03T09:03:31;101067.09;;;24.54;48.08
14269;BME280;7218;51.480;7.006;2022-07-03T09:05:58;101065.94;;;24.99;47.69
14269;BME280;7218;51.480;7.006;2022-07-03T09:08:26;101063.44;;;24.69;47.91
14269;BME280;7218;51.480;7.006;2022-07-03T09:10:57;101068.97;;;24.66;48.65
14269;BME280;7218;51.480;7.006;2022-07-03T09:13:23;101061.00;;;24.25;49.34
14269;BME280;7218;51.480;7.006;2022-07-03T09:15:51;101060.56;;;24.46;48.10
14269;BME280;7218;51.480;7.006;2022-07-03T09:18:17;101067.28;;;24.51;48.25
14269;BME280;7218;51.480;7.006;2022-07-03T09:21:02;101062.09;;;25.16;48.19
14269;BME280;7218;51.480;7.006;2022-07-03T09:23:35;101057.16;;;25.49;47.61
14269;BME280;7218;51.480;7.006;2022-07-03T09:26:03;101059.94;;;25.86;46.47
14269;BME280;7218;51.480;7.006;2022-07-03T09:28:44;101058.63;;;26.29;49.21
14269;BME280;7218;51.480;7.006;2022-07-03T09:31:14;101054.78;;;26.57;46.11
14269;BME280;7218;51.480;7.006;2022-07-03T09:33:49;101057.22;;;26.60;45.11
14269;BME280;7218;51.480;7.006;2022-07-03T09:36:16;101060.13;;;26.81;44.12
14269;BME280;7218;51.480;7.006;2022-07-03T09:38:43;101066.16;;;27.08;43.57
14269;BME280;7218;51.480;7.006;2022-07-03T09:41:10;101068.22;;;26.44;43.83
14269;BME280;7218;51.480;7.006;2022-07-03T09:43:41;101064.19;;;26.63;43.70
14269;BME280;7218;51.480;7.006;2022-07-03T09:46:08;101068.22;;;26.68;43.62
14269;BME280;7218;51.480;7.006;2022-07-03T09:48:37;101072.22;;;26.13;44.73
14269;BME280;7218;51.480;7.006;2022-07-03T09:51:20;101061.09;;;26.56;44.33
14269;BME280;7218;51.480;7.006;2022-07-03T09:53:54;101062.47;;;26.38;44.77
14269;BME280;7218;51.480;7.006;2022-07-03T09:56:22;101067.78;;;26.74;44.60
14269;BME280;7218;51.480;7.006;2022-07-03T09:59:06;101063.47;;;27.08;43.15
14269;BME280;7218;51.480;7.006;2022-07-03T10:01:34;101063.91;;;27.83;42.40
14269;BME280;7218;51.480;7.006;2022-07-03T10:04:13;101064.88;;;28.49;42.37
14269;BME280;7218;51.480;7.006;2022-07-03T10:06:52;101057.81;;;28.03;41.27
14269;BME280;7218;51.480;7.006;2022-07-03T10:09:20;101051.75;;;28.12;41.27
14269;BME280;7218;51.480;7.006;2022-07-03T10:11:48;101066.19;;;27.54;41.77
14269;BME280;7218;51.480;7.006;2022-07-03T10:14:15;101057.19;;;28.00;41.82
14269;BME280;7218;51.480;7.006;2022-07-03T10:16:43;101057.66;;;27.25;42.94
14269;BME280;7218;51.480;7.006;2022-07-03T10:19:14;101069.13;;;27.73;42.68
14269;BME280;7218;51.480;7.006;2022-07-03T10:21:49;101053.44;;;28.13;40.74
14269;BME280;7218;51.480;7.006;2022-07-03T10:24:16;101062.41;;;28.46;40.86
14269;BME280;7218;51.480;7.006;2022-07-03T10:26:43;101063.63;;;28.53;40.77
14269;BME280;7218;51.480;7.006;2022-07-03T10:29:10;101064.84;;;29.24;40.61
14269;BME280;7218;51.480;7.006;2022-07-03T10:31:42;101078.03;;;28.52;40.38
14269;BME280;7218;51.480;7.006;2022-07-03T10:34:10;101064.03;;;28.91;40.03
14269;BME280;7218;51.480;7.006;2022-07-03T10:36:39;101063.00;;;28.72;40.29
14269;BME280;7218;51.480;7.006;2022-07-03T10:39:06;101065.47;;;28.41;40.42
14269;BME280;7218;51.480;7.006;2022-07-03T10:41:35;101075.53;;;29.14;39.03
14269;BME280;7218;51.480;7.006;2022-07-03T10:44:20;101068.75;;;29.31;39.08
14269;BME280;7218;51.480;7.006;2022-07-03T10:47:04;101068.25;;;28.51;39.93
14269;BME280;7218;51.480;7.006;2022-07-03T10:49:31;101079.47;;;27.67;41.52
14269;BME280;7218;51.480;7.006;2022-07-03T10:52:00;101078.56;;;28.12;41.18
14269;BME280;7218;51.480;7.006;2022-07-03T10:54:28;101074.38;;;28.08;41.90
14269;BME280;7218;51.480;7.006;2022-07-03T10:57:14;101075.22;;;27.87;40.85
14269;BME280;7218;51.480;7.006;2022-07-03T11:00:08;101067.09;;;28.21;40.48
14269;BME280;7218;51.480;7.006;2022-07-03T11:02:39;101073.69;;;28.83;40.26
14269;BME280;7218;51.480;7.006;2022-07-03T11:08:09;101086.69;;;27.89;40.02
14269;BME280;7218;51.480;7.006;2022-07-03T11:10:37;101075.34;;;27.85;40.48
14269;BME280;7218;51.480;7.006;2022-07-03T11:13:17;101064.66;;;28.18;39.39
14269;BME280;7218;51.480;7.006;2022-07-03T11:15:49;101075.03;;;28.88;38.31
14269;BME280;7218;51.480;7.006;2022-07-03T11:18:20;101064.69;;;28.61;38.30
14269;BME280;7218;51.480;7.006;2022-07-03T11:21:26;101059.16;;;28.85;38.77
14269;BME280;7218;51.480;7.006;2022-07-03T11:27:21;101059.13;;;29.79;36.24
14269;BME280;7218;51.480;7.006;2022-07-03T11:29:54;101057.84;;;29.74;37.22
14269;BME280;7218;51.480;7.006;2022-07-03T11:32:43;101058.84;;;30.43;36.41
14269;BME280;7218;51.480;7.006;2022-07-03T11:38:11;101053.78;;;30.10;36.08
14269;BME280;7218;51.480;7.006;2022-07-03T11:40:41;101048.94;;;28.79;37.41
14269;BME280;7218;51.480;7.006;2022-07-03T11:43:10;101052.13;;;29.26;37.82
14269;BME280;7218;51.480;7.006;2022-07-03T11:45:37;101054.66;;;29.38;36.47
14269;BME280;7218;51.480;7.006;2022-07-03T11:48:06;101050.69;;;30.24;35.59
14269;BME280;7218;51.480;7.006;2022-07-03T11:50:37;101058.66;;;29.44;36.33
14269;BME280;7218;51.480;7.006;2022-07-03T11:53:24;101073.28;;;30.42;36.13
14269;BME280;7218;51.480;7.006;2022-07-03T11:55:53;101061.09;;;30.38;34.83
14269;BME280;7218;51.480;7.006;2022-07-03T11:58:21;101069.97;;;30.29;34.17
14269;BME280;7218;51.480;7.006;2022-07-03T12:00:48;101058.06;;;30.22;34.77
14269;BME280;7218;51.480;7.006;2022-07-03T12:03:20;101059.06;;;31.18;34.43
14269;BME280;7218;51.480;7.006;2022-07-03T12:05:52;101058.53;;;31.15;32.99
14269;BME280;7218;51.480;7.006;2022-07-03T12:08:22;101056.22;;;30.82;34.47
14269;BME280;7218;51.480;7.006;2022-07-03T12:10:49;101056.78;;;30.56;34.30
14269;BME280;7218;51.480;7.006;2022-07-03T12:13:21;101066.03;;;31.31;33.01
14269;BME280;7218;51.480;7.006;2022-07-03T12:15:48;101060.53;;;31.13;32.68
14269;BME280;7218;51.480;7.006;2022-07-03T12:18:15;101055.22;;;31.40;31.81
14269;BME280;7218;51.480;7.006;2022-07-03T12:20:44;101037.59;;;32.29;31.44
14269;BME280;7218;51.480;7.006;2022-07-03T12:23:10;101045.19;;;32.71;30.53
14269;BME280;7218;51.480;7.006;2022-07-03T12:25:38;101044.41;;;32.06;31.33
14269;BME280;7218;51.480;7.006;2022-07-03T12:28:05;101046.34;;;32.86;30.80
14269;BME280;7218;51.480;7.006;2022-07-03T12:30:34;101052.72;;;31.85;31.70
14269;BME280;7218;51.480;7.006;2022-07-03T12:33:00;101052.56;;;31.87;31.80
14269;BME280;7218;51.480;7.006;2022-07-03T12:35:28;101041.75;;;32.24;31.73
14269;BME280;7218;51.480;7.006;2022-07-03T12:37:55;101047.66;;;31.73;32.06
14269;BME280;7218;51.480;7.006;2022-07-03T12:40:22;101040.41;;;32.65;31.75
14269;BME280;7218;51.480;7.006;2022-07-03T12:42:50;101024.25;;;32.73;30.38
14269;BME280;7218;51.480;7.006;2022-07-03T12:45:19;101031.34;;;33.27;30.49
14269;BME280;7218;51.480;7.006;2022-07-03T12:47:56;101031.69;;;34.17;28.72
14269;BME280;7218;51.480;7.006;2022-07-03T12:50:24;101031.28;;;33.45;29.12
14269;BME280;7218;51.480;7.006;2022-07-03T12:52:51;101031.41;;;34.95;28.50
14269;BME280;7218;51.480;7.006;2022-07-03T12:55:23;101020.84;;;33.67;29.09
14269;BME280;7218;51.480;7.006;2022-07-03T12:57:50;101020.50;;;32.66;30.09
14269;BME280;7218;51.480;7.006;2022-07-03T13:01:01;101033.47;;;33.67;29.24
14269;BME280;7218;51.480;7.006;2022-07-03T13:03:31;101035.75;;;32.30;30.53
14269;BME280;7218;51.480;7.006;2022-07-03T13:05:58;101033.13;;;31.27;32.61
14269;BME280;7218;51.480;7.006;2022-07-03T13:08:24;101026.97;;;31.44;32.38
14269;BME280;7218;51.480;7.006;2022-07-03T13:10:55;101036.94;;;30.67;32.96
14269;BME280;7218;51.480;7.006;2022-07-03T13:13:22;101019.91;;;30.47;32.87
14269;BME280;7218;51.480;7.006;2022-07-03T13:15:48;101018.75;;;31.46;32.82
14269;BME280;7218;51.480;7.006;2022-07-03T13:18:15;101022.59;;;31.90;30.78
14269;BME280;7218;51.480;7.006;2022-07-03T13:20:43;101027.09;;;31.99;30.50